Date,TemperatureHighF,TemperatureAvgF,TemperatureLowF,DewpointHighF,DewpointAvgF,DewpointLowF,HumidityHigh,HumidityAvg,HumidityLow,PressureMaxIn,PressureMinIn,WindSpeedMaxMPH,WindSpeedAvgMPH,GustSpeedMaxMPH,PrecipitationSumIn
2013-10-1,86.1,72.4,61.1,64.7,59.0,51.8,76,64,46,29.92,29.81,7,0,7,0.00
2013-10-2,84.3,74.5,67.8,71.3,67.5,62.8,97,80,61,29.95,29.81,9,1,9,0.00
2013-10-3,88.7,78.3,72.0,70.5,68.2,66.9,87,72,52,29.83,29.66,13,2,13,0.00
2013-10-4,88.3,74.9,56.6,70.0,63.8,37.1,94,70,43,29.99,29.68,13,2,13,0.37
2013-10-5,64.1,53.5,47.6,39.3,35.2,31.2,72,51,34,30.11,29.96,14,1,14,0.00
2013-10-6,68.3,54.7,45.9,43.4,34.8,26.3,73,49,21,30.05,29.96,12,1,12,0.00
2013-10-7,75.7,56.6,40.3,43.7,39.8,36.6,90,58,27,30.18,30.04,4,0,5,0.00
2013-10-8,77.1,63.8,51.8,50.5,45.5,40.1,74,53,33,30.06,29.93,11,1,11,0.00
2013-10-9,80.3,67.1,56.3,56.0,52.1,48.6,76,60,38,30.00,29.92,9,1,11,0.00
2013-10-10,81.6,69.3,59.2,61.4,57.3,53.6,82,67,49,29.97,29.77,12,1,14,0.00
2013-10-11,83.3,69.6,58.0,62.7,52.1,34.6,82,58,19,29.90,29.70,11,2,13,0.00
2013-10-12,71.5,59.7,50.8,46.4,41.8,37.8,71,53,30,30.22,29.89,8,0,9,0.00
2013-10-13,70.0,58.4,43.1,50.5,43.9,38.8,86,60,40,30.31,30.17,10,0,10,0.00
2013-10-14,63.9,61.4,57.4,63.0,55.7,46.4,97,83,56,30.17,29.80,9,1,12,0.42
2013-10-15,59.9,51.7,45.0,56.7,42.2,37.6,97,72,48,30.13,29.89,13,1,15,0.00
2013-10-16,55.3,46.6,39.2,43.0,38.4,35.7,92,74,52,30.15,30.01,10,0,11,0.00
2013-10-17,67.0,49.7,38.9,47.1,41.1,31.7,97,76,28,30.05,29.91,7,0,8,0.00
2013-10-18,48.6,38.6,32.1,39.9,35.2,31.3,97,88,72,30.15,30.02,10,0,10,0.30
2013-10-19,65.8,46.2,30.0,43.3,37.1,29.3,98,75,39,30.13,29.90,7,0,7,0.00
2013-10-20,72.0,54.3,39.4,50.3,42.8,36.4,90,68,40,29.94,29.77,7,0,7,0.00
2013-10-21,60.4,50.7,44.6,44.7,39.1,33.6,81,66,42,30.13,29.94,8,0,8,0.00
2013-10-22,69.3,55.0,44.1,45.9,41.7,38.7,87,63,38,30.09,29.96,13,1,13,0.00
2013-10-23,67.3,50.0,36.6,47.2,40.7,34.9,96,73,42,30.15,29.98,6,0,6,0.00
2013-10-24,53.2,45.1,36.7,42.8,34.7,29.5,88,69,43,30.40,30.11,10,0,10,0.00
2013-10-25,59.0,45.9,32.2,39.7,32.7,27.0,94,63,32,30.42,30.12,9,1,9,0.00
2013-10-26,65.6,52.5,38.2,50.3,38.9,27.4,86,63,26,30.17,30.07,15,0,15,0.00
2013-10-27,66.6,47.5,30.2,38.5,32.9,28.5,97,62,28,30.16,29.90,6,0,6,0.00
2013-10-28,65.0,57.0,47.1,57.5,51.1,33.3,97,81,49,30.05,29.92,8,0,8,0.00
2013-10-29,70.8,62.8,58.0,67.1,60.7,55.3,98,93,81,29.97,29.87,9,0,11,1.00
2013-10-30,73.5,59.9,50.9,69.0,58.4,49.6,99,95,83,29.95,29.69,14,1,15,1.00
2013-10-31,62.9,51.8,44.8,50.3,46.0,40.6,98,83,47,29.73,29.56,10,1,10,0.79